Terminal Aerodrome Forecast
Issued by NWS Louisville, KY

Home | Current Version | Previous Version | Text Only | Print | Product List | Glossary On
Versions: 1 2 3 4 5 6 7 8 9 10 11 12 13 14 15 16 17 18 19 20 21
000
FTUS43 KLMK 080100 AAB
TAFBWG
TAF AMD
KBWG 080110Z 0801/0824 23010G18KT 3SM SHRA BR BKN035
     FM080130 20008KT 6SM -SHRA BR VCTS BKN040CB
      TEMPO 0802/0804 26020G30KT 2SM -TSRA BR SCT025 BKN035CB
     FM080400 20008KT P6SM SCT025 BKN035
     FM080800 20010KT 6SM -SHRA BR BKN050
     FM081500 23013G20KT P6SM SCT025 BKN150=

USA.gov is the U.S. government's official web portal to all federal, state and local government web resources and services.